Airfield :
LOGIN :

Register | Disclaimer

   EN    FR    IT 

 










Legend :    VFR   Marginal VFR   IFR   Intensive IFR   Very Intensive IFR
Visi :
Ceiling :
>= 8 km
>= 3000ft
5 to 8 km
1000 to 3000 ft
1500m to 5 km
500 to 1000 ft
800 to 1500m
200 to 500 ft
< 800m
< 200 ft
Symbols :   Thunderstorms  Fog  Heavy snow  Heavy precipitations  Wind > 20 kt
SIGMETs :     Misc.  Thunderstorms  Icing  Turbulence  Mountain Waves  Volcanic Ashes







- Airport Elevation : 100 ft
- IATA code : DCI


LIED - Decimomannu Air Base

CURRENT METAR :
  • 191955Z 30013KT 9999 FEW040 18/13 Q1016 RMK FEW VIS MIN 9999 WIND THR35 /////KT WIND THR17 /////KT BLU

EXPIRED METARs :
  • 191855Z 29011KT 9999 FEW020 SCT040 18/12 Q1016 RMK SCT VIS MIN 9999 WIND THR35 /////KT WIND THR17 /////KT BLU
  • 191755Z 29013KT 9999 SCT025 SCT040 18/12 Q1016 RMK BKN VIS MIN 9999 WIND THR35 /////KT WIND THR17 /////KT BLU

TAF TAF LIED
Valid from the 19 at 18:00 until the 20 at 03:00 UTC


191700Z 1918/2003 32015KT 9999 SCT025 SCT060
No reported NOTAMs for that airfield.
4 SIGMETs reported for the Roma FIR (LIRR) :
 
Severe turbulence
LIRR SIGMET 7 VALID 192000/200000 LIIB
LIRR ROMA FIR SEV TURB FCST N OF LINE N3747 E01048 - N4031 E01528 ABV FL160 NC=
Embedded thunderstorms
LIRR SIGMET 6 VALID 192000/200000 LIIB
LIRR ROMA FIR EMBD TS FCST WI N4310 E00944 - N4335 E01016 - N4343 E01109 - N4240 E01316 - N4127 E01421 - N4109 E01508 - N4009 E01542 - N3951 E01200 - N4132 E00944 - N4310 E00944 TOP ABV FL260 MOV SSE NC=
Severe mountain waves
LIRR SIGMET 5 VALID 191700/192000 LIIB
LIRR ROMA FIR SEV MTW FCST WI N4119 E00914 - N3830 E00906 - N3825 E01146 - N4042 E01055 - N4119 E00914 FL030/120 NC=
Severe turbulence
LIRR SIGMET 4 VALID 191700/192000 LIIB
LIRR ROMA FIR SEV TURB FCST ENTIRE FIR ABV FL160 INTSF=



MET'MAP, your aeronautical weather chart ! - Copyright ORBIFLY December 2007 - Disclaimer

ORBIFLY MET'MAP TEAM :

Programming & Development : Alexandra Zaïnal
Concept & Development : Baudouin d'Aumeries
Co-Development & Prog : Marc-Olivier Méhu
Technical & hardware support : Manuel Goepfert

Contact : metmap@orbifly.com




SOURCES & CREDITS :

   NOAA